Irene, Illinois
Current Conditions -  °F | °C
As of 3:54 AM on Saturday 25 Oct 2014 (Local Time) from KRFD Reporting Station
Light Fog Light Fog  
Wind Chill: 57°   Ceiling: 1500
Heat Index: 57°   Visibility: 4mi
Dew Point: 54°   Wind: 3mph
Humidity: 89%   Direction: 270°W
Pressure: 29.94"   Gusts: NA
Location:  42.1893°N, 88.9437°W
Report Text: KRFD 250854Z 27003KT 4SM BCFG BR FEW007 OVC015 14/12 A2994 RMK AO2 SLP138 VIS SW-W 2 T01390122 50004
Loading
Personal Weather Stations






























Interactive Weather Map
Tropical Storm Tracking
New forecast layout! Learn more

10-Day Weather Forecast

Advertisements
Track Severe Weather on mobile